Terminal Aerodrome Forecast
Issued by NWS

Home | Current Version | Previous Version | Text Only | Print | Product List | Glossary On
Versions: 1 2 3 4 5 6 7 8 9 10 11 12 13 14 15
000
FTUS43 KDTX 010527
TAFMBS
TAF
KMBS 010527Z 0106/0206 33007KT 5SM BR OVC007
      TEMPO 0106/0108 P6SM NSW SCT007 BKN020 OVC040
     FM011400 30005KT P6SM BKN020
     FM011700 30005KT P6SM BKN035
     FM012000 33007KT P6SM SCT045=

USA.gov is the U.S. government's official web portal to all federal, state and local government web resources and services.